createdAt,value
2023-04-05T00:01:01.395Z,99260.22
2023-04-05T00:03:35.635Z,99266.17
2023-04-05T00:06:11.936Z,99263.55
2023-04-05T00:08:46.964Z,99264.34
2023-04-05T00:11:23.868Z,99268.57
2023-04-05T00:13:58.038Z,99263.32
2023-04-05T00:16:31.956Z,99261.52
2023-04-05T00:19:06.669Z,99260.53
2023-04-05T00:21:43.404Z,99261.36
2023-04-05T00:24:17.860Z,99259.59
2023-04-05T00:26:51.470Z,99266.41
2023-04-05T00:29:24.782Z,99264.61
2023-04-05T00:31:58.790Z,99262.78
2023-04-05T00:34:33.885Z,99268.72
2023-04-05T00:37:07.376Z,99259.11
2023-04-05T00:39:40.912Z,99270.27
2023-04-05T00:42:14.421Z,99267.64
2023-04-05T00:44:48.181Z,99274.38
2023-04-05T00:47:21.846Z,99274.20
2023-04-05T00:49:57.985Z,99276.57
2023-04-05T00:52:32.374Z,99275.59
2023-04-05T00:55:08.426Z,99276.47
2023-04-05T00:57:42.310Z,99277.33
2023-04-05T01:00:17.369Z,99275.75
2023-04-05T01:02:53.359Z,99278.45
2023-04-05T01:05:34.730Z,99275.03
2023-04-05T01:08:12.029Z,99282.00
2023-04-05T01:10:48.926Z,99286.36
2023-04-05T01:13:22.995Z,99286.39
2023-04-05T01:15:56.643Z,99289.02
2023-04-05T01:18:33.157Z,99283.05
2023-04-05T01:21:12.503Z,99289.16
2023-04-05T01:23:49.421Z,99282.36
2023-04-05T01:26:42.674Z,99283.09
2023-04-05T01:29:52.610Z,99280.42
2023-04-05T01:32:53.994Z,99281.25
2023-04-05T01:35:31.304Z,99282.61
2023-04-05T01:38:06.727Z,99274.73
2023-04-05T01:40:41.994Z,99284.16
2023-04-05T01:43:19.469Z,99288.52
2023-04-05T01:45:52.809Z,99284.16
2023-04-05T01:48:26.430Z,99285.09
2023-04-05T01:51:00.037Z,99285.09
2023-04-05T01:53:34.418Z,99284.16
2023-04-05T01:56:10.005Z,99288.36
2023-04-05T01:58:43.533Z,99285.88
2023-04-05T02:01:16.950Z,99285.84
2023-04-05T02:03:50.746Z,99295.27
2023-04-05T02:06:24.705Z,99292.60
2023-04-05T02:08:58.271Z,99295.08
2023-04-05T02:11:31.644Z,99297.48
2023-04-05T02:14:05.433Z,99295.68
2023-04-05T02:16:40.912Z,99301.76
2023-04-05T02:19:16.216Z,99300.07
2023-04-05T02:21:52.581Z,99308.77
2023-04-05T02:24:26.095Z,99308.81
2023-04-05T02:26:59.769Z,99305.36
2023-04-05T02:29:33.482Z,99313.88
2023-04-05T02:32:07.730Z,99312.11
2023-04-05T02:34:42.265Z,99310.43
2023-04-05T02:37:16.016Z,99310.54
2023-04-05T02:39:49.714Z,99322.73
2023-04-05T02:42:23.068Z,99324.50
2023-04-05T02:44:56.670Z,99316.81
2023-04-05T02:47:29.860Z,99328.10
2023-04-05T02:50:05.682Z,99328.10
2023-04-05T02:52:40.780Z,99323.56
2023-04-05T02:55:14.382Z,99329.34
2023-04-05T02:57:48.113Z,99329.22
2023-04-05T03:00:24.378Z,99326.35
2023-04-05T03:02:58.832Z,99346.23
2023-04-05T03:05:32.517Z,99336.83
2023-04-05T03:08:06.968Z,99338.55
2023-04-05T03:10:42.379Z,99339.41
2023-04-05T03:13:17.845Z,99347.92
2023-04-05T03:15:53.609Z,99343.57
2023-04-05T03:18:27.660Z,99345.33
2023-04-05T03:21:04.817Z,99354.16
2023-04-05T03:23:39.358Z,99352.83
2023-04-05T03:26:14.127Z,99348.62
2023-04-05T03:28:49.075Z,99350.39
2023-04-05T03:31:22.844Z,99356.59
2023-04-05T03:33:56.202Z,99349.72
2023-04-05T03:36:33.201Z,99353.21
2023-04-05T03:39:08.477Z,99365.41
2023-04-05T03:41:42.513Z,99366.23
2023-04-05T03:44:16.398Z,99363.84
2023-04-05T03:46:50.060Z,99370.86
2023-04-05T03:49:23.516Z,99370.27
2023-04-05T03:51:57.099Z,99371.16
2023-04-05T03:54:30.693Z,99377.20
2023-04-05T03:57:06.279Z,99367.75
2023-04-05T03:59:39.838Z,99375.44
2023-04-05T04:02:15.151Z,99373.08
2023-04-05T04:04:48.906Z,99372.51
2023-04-05T04:07:22.560Z,99367.61
2023-04-05T04:09:57.913Z,99375.67
2023-04-05T04:12:34.209Z,99374.30
2023-04-05T04:15:12.981Z,99380.59
2023-04-05T04:17:51.477Z,99384.19
2023-04-05T04:20:33.954Z,99395.50
2023-04-05T04:23:19.890Z,99387.75
2023-04-05T04:26:05.199Z,99387.75
2023-04-05T04:28:42.076Z,99388.81
2023-04-05T04:31:23.234Z,99397.64
2023-04-05T04:34:03.300Z,99399.50
2023-04-05T04:36:45.818Z,99390.13
2023-04-05T04:39:27.632Z,99402.16
2023-04-05T04:42:10.603Z,99401.53
2023-04-05T04:44:48.826Z,99400.86
2023-04-05T04:47:24.230Z,99406.95
2023-04-05T04:50:02.104Z,99404.48
2023-04-05T04:52:36.778Z,99409.96
2023-04-05T04:55:14.399Z,99401.72
2023-04-05T04:57:49.478Z,99406.50
2023-04-05T05:00:25.074Z,99400.85
2023-04-05T05:02:58.970Z,99396.49
2023-04-05T05:05:32.489Z,99403.45
2023-04-05T05:08:06.550Z,99411.39
2023-04-05T05:10:40.049Z,99406.88
2023-04-05T05:13:13.580Z,99420.83
2023-04-05T05:15:48.801Z,99414.87
2023-04-05T05:18:22.899Z,99422.65
2023-04-05T05:20:56.996Z,99427.27
2023-04-05T05:23:31.091Z,99424.95
2023-04-05T05:26:07.439Z,99427.59
2023-04-05T05:28:41.626Z,99425.11
2023-04-05T05:31:17.179Z,99430.17
2023-04-05T05:33:51.314Z,99428.30
2023-04-05T05:36:25.858Z,99434.17
2023-04-05T05:38:59.751Z,99432.06
2023-04-05T05:41:33.787Z,99435.46
2023-04-05T05:44:07.572Z,99434.71
2023-04-05T05:46:41.304Z,99435.70
2023-04-05T05:49:14.919Z,99447.22
2023-04-05T05:51:48.581Z,99446.91
2023-04-05T05:54:23.535Z,99436.97
2023-04-05T05:56:57.055Z,99437.45
2023-04-05T05:59:31.224Z,99436.53
2023-04-05T06:02:04.723Z,99442.48
2023-04-05T06:04:38.830Z,99449.08
2023-04-05T06:07:12.486Z,99449.68
2023-04-05T06:09:47.727Z,99452.81
2023-04-05T06:12:23.235Z,99451.08
2023-04-05T06:14:56.770Z,99461.48
2023-04-05T06:17:30.860Z,99457.37
2023-04-05T06:20:05.272Z,99454.36
2023-04-05T06:22:40.424Z,99458.93
2023-04-05T06:25:15.423Z,99455.69
2023-04-05T06:27:49.193Z,99455.72
2023-04-05T06:30:23.470Z,99467.91
2023-04-05T06:32:57.448Z,99458.36
2023-04-05T06:35:31.024Z,99457.50
2023-04-05T06:38:04.335Z,99459.28
2023-04-05T06:40:37.786Z,99465.43
2023-04-05T06:43:12.339Z,99464.91
2023-04-05T06:45:46.619Z,99465.19
2023-04-05T06:48:21.480Z,99461.28
2023-04-05T06:51:01.292Z,99471.16
2023-04-05T06:53:34.952Z,99471.28
2023-04-05T06:56:10.000Z,99465.34
2023-04-05T06:58:44.230Z,99462.86
2023-04-05T07:01:18.808Z,99464.68
2023-04-05T07:03:52.452Z,99459.72
2023-04-05T07:06:25.958Z,99470.45
2023-04-05T07:08:59.583Z,99467.16
2023-04-05T07:11:32.928Z,99462.33
2023-04-05T07:14:06.490Z,99459.37
2023-04-05T07:16:40.000Z,99460.65
2023-04-05T07:19:14.003Z,99459.31
2023-04-05T07:21:47.654Z,99457.72
2023-04-05T07:24:21.348Z,99463.91
2023-04-05T07:26:54.784Z,99459.55
2023-04-05T07:29:28.332Z,99470.86
2023-04-05T07:32:01.906Z,99466.47
2023-04-05T07:34:35.769Z,99467.37
2023-04-05T07:37:09.368Z,99476.20
2023-04-05T07:39:42.745Z,99472.72
2023-04-05T07:42:17.940Z,99468.30
2023-04-05T07:44:51.346Z,99466.33
2023-04-05T07:47:24.779Z,99471.62
2023-04-05T07:49:58.437Z,99467.72
2023-04-05T07:52:31.986Z,99469.42
2023-04-05T07:55:05.726Z,99471.53
2023-04-05T07:57:39.240Z,99471.22
2023-04-05T08:00:15.622Z,99473.25
2023-04-05T08:02:49.413Z,99484.46
2023-04-05T08:05:22.959Z,99476.29
2023-04-05T08:07:58.467Z,99471.63
2023-04-05T08:10:32.055Z,99473.53
2023-04-05T08:13:06.992Z,99471.29
2023-04-05T08:15:41.489Z,99465.25
2023-04-05T08:18:16.952Z,99475.00
2023-04-05T08:20:53.684Z,99468.33
2023-04-05T08:23:27.319Z,99467.94
2023-04-05T08:26:02.484Z,99468.84
2023-04-05T08:28:35.858Z,99476.95
2023-04-05T08:31:10.470Z,99473.61
2023-04-05T08:33:44.376Z,99477.48
2023-04-05T08:36:18.071Z,99463.95
2023-04-05T08:38:51.786Z,99474.11
2023-04-05T08:41:28.269Z,99476.77
2023-04-05T08:44:03.695Z,99481.09
2023-04-05T08:46:38.019Z,99474.31
2023-04-05T08:49:12.303Z,99465.07
2023-04-05T08:51:45.821Z,99466.31
2023-04-05T08:54:20.088Z,99464.98
2023-04-05T08:56:55.307Z,99472.09
2023-04-05T08:59:29.735Z,99462.06
2023-04-05T09:02:04.864Z,99462.90
2023-04-05T09:04:42.697Z,99467.67
2023-04-05T09:07:16.874Z,99469.03
2023-04-05T09:09:53.130Z,99478.50
2023-04-05T09:12:28.269Z,99470.44
2023-04-05T09:15:03.690Z,99479.77
2023-04-05T09:17:38.977Z,99479.61
2023-04-05T09:20:12.888Z,99482.44
2023-04-05T09:22:47.103Z,99480.48
2023-04-05T09:25:38.932Z,99485.34
2023-04-05T09:28:13.119Z,99476.95
2023-04-05T09:30:49.589Z,99485.77
2023-04-05T09:33:24.490Z,99478.84
2023-04-05T09:35:58.443Z,99475.20
2023-04-05T09:38:47.817Z,99493.14
2023-04-05T09:41:21.301Z,99486.34
2023-04-05T09:43:55.614Z,99488.78
2023-04-05T09:46:38.008Z,99485.95
2023-04-05T09:49:11.967Z,99492.95
2023-04-05T09:51:46.332Z,99493.91
2023-04-05T09:54:19.880Z,99488.82
2023-04-05T09:56:58.485Z,99494.81
2023-04-05T09:59:33.603Z,99496.45
2023-04-05T10:02:07.630Z,99488.48
2023-04-05T10:04:45.444Z,99482.63
2023-04-05T10:07:20.238Z,99493.37
2023-04-05T10:09:54.112Z,99490.33
2023-04-05T10:12:29.675Z,99494.55
2023-04-05T10:15:03.366Z,99490.53
2023-04-05T10:17:42.809Z,99492.20
2023-04-05T10:20:18.960Z,99501.38
2023-04-05T10:23:05.515Z,99495.20
2023-04-05T10:25:53.186Z,99499.48
2023-04-05T10:28:31.463Z,99508.28
2023-04-05T10:31:13.172Z,99502.26
2023-04-05T10:33:48.733Z,99500.66
2023-04-05T10:36:26.392Z,99504.13
2023-04-05T10:39:00.956Z,99506.55
2023-04-05T10:41:36.780Z,99492.00
2023-04-05T10:44:24.819Z,99497.16
2023-04-05T10:46:47.633Z,99499.28
2023-04-05T10:49:24.192Z,99499.55
2023-04-05T10:51:58.750Z,99499.51
2023-04-05T10:54:34.737Z,99489.87
2023-04-05T10:57:10.430Z,99492.66
2023-04-05T10:59:50.758Z,99495.74
2023-04-05T11:02:32.447Z,99491.88
2023-04-05T11:05:10.539Z,99488.73
2023-04-05T11:07:50.938Z,99489.06
2023-04-05T11:10:26.779Z,99488.02
2023-04-05T11:13:12.701Z,99489.20
2023-04-05T11:15:46.393Z,99496.33
2023-04-05T11:18:24.861Z,99487.72
2023-04-05T11:21:08.619Z,99486.88
2023-04-05T11:24:02.636Z,99490.48
2023-04-05T11:26:47.776Z,99485.42
2023-04-05T11:29:22.752Z,99487.95
2023-04-05T11:32:03.788Z,99495.73
2023-04-05T11:34:39.532Z,99493.85
2023-04-05T11:37:13.359Z,99490.13
2023-04-05T11:39:47.137Z,99491.88
2023-04-05T11:42:20.931Z,99490.59
2023-04-05T11:44:55.998Z,99483.57
2023-04-05T11:47:30.061Z,99487.10
2023-04-05T11:50:03.449Z,99482.74
2023-04-05T11:52:36.909Z,99472.52
2023-04-05T11:55:11.874Z,99472.56
2023-04-05T11:57:46.285Z,99464.21
2023-04-05T12:00:23.132Z,99461.25
2023-04-05T12:02:59.646Z,99460.47
2023-04-05T12:05:51.150Z,99462.27
2023-04-05T12:08:25.501Z,99465.59
2023-04-05T12:11:01.467Z,99461.03
2023-04-05T12:13:36.057Z,99456.34
2023-04-05T12:16:11.974Z,99457.36
2023-04-05T12:18:45.594Z,99449.56
2023-04-05T12:21:19.217Z,99449.46
2023-04-05T12:23:53.276Z,99453.05
2023-04-05T12:26:27.037Z,99457.98
2023-04-05T12:29:02.885Z,99449.05
2023-04-05T12:31:41.613Z,99450.42
2023-04-05T12:34:16.390Z,99448.97
2023-04-05T12:36:50.007Z,99445.61
2023-04-05T12:39:24.704Z,99458.76
2023-04-05T12:42:02.432Z,99458.47
2023-04-05T12:44:35.731Z,99452.27
2023-04-05T12:47:10.741Z,99458.86
2023-04-05T12:49:44.369Z,99451.97
2023-04-05T12:52:22.596Z,99446.34
2023-04-05T12:54:57.583Z,99444.17
2023-04-05T12:57:34.429Z,99450.36
2023-04-05T13:00:11.539Z,99448.38
2023-04-05T13:02:45.113Z,99447.25
2023-04-05T13:05:19.016Z,99456.50
2023-04-05T13:07:52.724Z,99451.47
2023-04-05T13:10:27.649Z,99445.88
2023-04-05T13:13:01.353Z,99445.52
2023-04-05T13:15:34.874Z,99447.48
2023-04-05T13:18:08.598Z,99449.78
2023-04-05T13:20:42.242Z,99447.89
2023-04-05T13:23:15.845Z,99440.27
2023-04-05T13:25:49.296Z,99454.16
2023-04-05T13:28:22.750Z,99445.70
2023-04-05T13:30:56.343Z,99450.95
2023-04-05T13:33:29.945Z,99458.75
2023-04-05T13:36:03.490Z,99460.97
2023-04-05T13:38:37.271Z,99454.00
2023-04-05T13:41:10.707Z,99463.67
2023-04-05T13:43:44.182Z,99464.36
2023-04-05T13:46:17.802Z,99453.80
2023-04-05T13:48:51.319Z,99452.05
2023-04-05T13:51:25.280Z,99443.41
2023-04-05T13:53:59.122Z,99457.36
2023-04-05T13:56:32.879Z,99457.33
2023-04-05T13:59:06.507Z,99458.97
2023-04-05T14:01:40.229Z,99462.68
2023-04-05T14:04:13.887Z,99469.16
2023-04-05T14:06:47.624Z,99458.92
2023-04-05T14:09:21.305Z,99461.44
2023-04-05T14:11:55.352Z,99462.81
2023-04-05T14:14:29.051Z,99459.04
2023-04-05T14:17:02.867Z,99462.81
2023-04-05T14:19:38.151Z,99454.53
2023-04-05T14:22:11.581Z,99466.38
2023-04-05T14:24:45.179Z,99467.47
2023-04-05T14:27:20.490Z,99477.47
2023-04-05T14:29:56.047Z,99466.19
2023-04-05T14:32:33.038Z,99478.66
2023-04-05T14:35:05.489Z,99476.02
2023-04-05T14:37:39.342Z,99478.45
2023-04-05T14:40:14.583Z,99474.09
2023-04-05T14:42:50.590Z,99479.69
2023-04-05T14:45:25.960Z,99478.16
2023-04-05T14:48:00.050Z,99480.36
2023-04-05T14:50:33.822Z,99485.16
2023-04-05T14:53:08.409Z,99487.98
2023-04-05T14:55:42.221Z,99487.23
2023-04-05T14:58:15.698Z,99488.23
2023-04-05T15:00:51.430Z,99493.57
2023-04-05T15:03:27.408Z,99488.33
2023-04-05T15:06:04.869Z,99485.80
2023-04-05T15:08:38.929Z,99498.92
2023-04-05T15:11:12.675Z,99498.08
2023-04-05T15:13:46.523Z,99501.58
2023-04-05T15:16:20.335Z,99505.92
2023-04-05T15:18:55.495Z,99510.30
2023-04-05T15:21:29.756Z,99510.28
2023-04-05T15:24:03.680Z,99511.16
2023-04-05T15:26:37.329Z,99512.87
2023-04-05T15:29:11.223Z,99513.72
2023-04-05T15:31:44.928Z,99522.42
2023-04-05T15:34:18.529Z,99519.77
2023-04-05T15:36:53.404Z,99532.80
2023-04-05T15:39:27.328Z,99528.36
2023-04-05T15:42:02.502Z,99537.03
2023-04-05T15:44:36.206Z,99532.65
2023-04-05T15:47:10.969Z,99537.80
2023-04-05T15:49:45.071Z,99539.45
2023-04-05T15:52:18.504Z,99542.81
2023-04-05T15:54:52.041Z,99535.76
2023-04-05T15:57:26.427Z,99540.91
2023-04-05T16:00:00.229Z,99546.08
2023-04-05T16:02:34.857Z,99554.75
2023-04-05T16:05:09.609Z,99546.91
2023-04-05T16:07:43.276Z,99552.14
2023-04-05T16:10:17.041Z,99551.22
2023-04-05T16:12:50.461Z,99550.30
2023-04-05T16:15:24.724Z,99554.62
2023-04-05T16:17:58.513Z,99549.38
2023-04-05T16:20:32.824Z,99556.28
2023-04-05T16:23:06.972Z,99569.22
2023-04-05T16:25:43.965Z,99566.51
2023-04-05T16:28:17.750Z,99573.42
2023-04-05T16:30:51.996Z,99572.50
2023-04-05T16:33:32.067Z,99569.02
2023-04-05T16:36:09.115Z,99580.30
2023-04-05T16:38:45.053Z,99582.79
2023-04-05T16:41:18.506Z,99582.69
2023-04-05T16:43:52.729Z,99591.28
2023-04-05T16:46:26.601Z,99588.54
2023-04-05T16:49:01.344Z,99584.03
2023-04-05T16:51:37.032Z,99591.66
2023-04-05T16:54:10.832Z,99595.88
2023-04-05T16:56:45.613Z,99594.02
2023-04-05T16:59:19.516Z,99602.59
2023-04-05T17:01:53.350Z,99599.86
2023-04-05T17:04:27.264Z,99602.41
2023-04-05T17:07:00.855Z,99598.77
2023-04-05T17:09:34.485Z,99597.81
2023-04-05T17:12:11.939Z,99597.73
2023-04-05T17:14:44.664Z,99615.06
2023-04-05T17:17:19.564Z,99606.27
2023-04-05T17:19:53.561Z,99607.07
2023-04-05T17:22:27.181Z,99604.33
2023-04-05T17:25:02.782Z,99613.77
2023-04-05T17:27:36.482Z,99617.97
2023-04-05T17:30:15.724Z,99616.09
2023-04-05T17:32:49.292Z,99617.75
2023-04-05T17:35:23.501Z,99635.13
2023-04-05T17:37:57.196Z,99629.91
2023-04-05T17:40:33.411Z,99633.26
2023-04-05T17:43:07.652Z,99627.05
2023-04-05T17:45:41.723Z,99633.05
2023-04-05T17:50:57.877Z,99631.42
2023-04-05T17:53:31.537Z,99641.47
2023-04-05T17:56:05.149Z,99641.33
2023-04-05T17:58:38.450Z,99639.38
2023-04-05T18:01:25.347Z,99649.74
2023-04-05T18:04:01.709Z,99651.42
2023-04-05T18:06:36.601Z,99659.23
2023-04-05T18:09:16.624Z,99655.67
2023-04-05T18:11:52.368Z,99656.48
2023-04-05T18:14:28.910Z,99674.67
2023-04-05T18:17:02.667Z,99671.18
2023-04-05T18:19:36.006Z,99671.18
2023-04-05T18:24:54.174Z,99679.97
2023-04-05T18:27:32.658Z,99682.25
2023-04-05T18:30:12.498Z,99682.22
2023-04-05T18:32:46.346Z,99676.90
2023-04-05T18:35:25.298Z,99677.65
2023-04-05T18:38:03.734Z,99685.33
2023-04-05T18:40:36.856Z,99677.47
2023-04-05T18:43:10.081Z,99683.35
2023-04-05T18:45:43.299Z,99678.87
2023-04-05T18:48:16.717Z,99684.74
2023-04-05T18:50:49.961Z,99684.66
2023-04-05T18:53:26.281Z,99691.48
2023-04-05T18:55:59.425Z,99685.33
2023-04-05T18:58:32.736Z,99685.16
2023-04-05T19:01:09.381Z,99688.50
2023-04-05T19:03:43.046Z,99696.20
2023-04-05T19:06:16.787Z,99687.44
2023-04-05T19:08:52.617Z,99690.70
2023-04-05T19:11:27.443Z,99691.42
2023-04-05T19:14:04.103Z,99689.63
2023-04-05T19:16:37.461Z,99692.12
2023-04-05T19:19:10.939Z,99693.68
2023-04-05T19:21:44.040Z,99692.67
2023-04-05T19:24:17.223Z,99692.61
2023-04-05T19:26:52.722Z,99697.77
2023-04-05T19:29:26.529Z,99695.06
2023-04-05T19:32:05.649Z,99694.81
2023-04-05T19:37:36.547Z,99702.53
2023-04-05T19:40:19.714Z,99703.86
2023-04-05T19:43:03.632Z,99711.54
2023-04-05T19:45:42.368Z,99711.47
2023-04-05T19:48:38.656Z,99704.31
2023-04-05T19:51:22.040Z,99711.05
2023-04-05T19:54:02.089Z,99704.72
2023-04-05T19:56:37.430Z,99715.92
2023-04-05T19:59:27.121Z,99714.08
2023-04-05T20:02:01.655Z,99714.80
2023-04-05T20:04:36.681Z,99717.16
2023-04-05T20:07:13.015Z,99718.80
2023-04-05T20:09:50.484Z,99723.88
2023-04-05T20:12:23.964Z,99725.59
2023-04-05T20:14:58.675Z,99715.96
2023-04-05T20:17:40.920Z,99728.89
2023-04-05T20:20:17.463Z,99716.52
2023-04-05T20:22:53.528Z,99723.27
2023-04-05T20:25:40.802Z,99726.64
2023-04-05T20:28:32.091Z,99724.88
2023-04-05T20:31:06.558Z,99730.88
2023-04-05T20:34:03.051Z,99733.34
2023-04-05T20:39:20.585Z,99733.55
2023-04-05T20:41:55.793Z,99733.92
2023-04-05T20:44:31.584Z,99733.87
2023-04-05T20:47:11.831Z,99732.84
2023-04-05T20:49:47.115Z,99731.77
2023-04-05T20:52:23.165Z,99727.36
2023-04-05T20:55:01.784Z,99734.19
2023-04-05T20:57:35.047Z,99730.56
2023-04-05T21:00:14.890Z,99740.84
2023-04-05T21:02:48.596Z,99739.80
2023-04-05T21:05:22.164Z,99742.34
2023-04-05T21:07:57.953Z,99744.98
2023-04-05T21:10:31.687Z,99738.84
2023-04-05T21:13:05.106Z,99740.48
2023-04-05T21:15:38.611Z,99744.66
2023-04-05T21:18:29.157Z,99737.58
2023-04-05T21:21:02.541Z,99739.12
2023-04-05T21:23:36.644Z,99740.72
2023-04-05T21:26:11.682Z,99742.36
2023-04-05T21:28:46.972Z,99739.54
2023-04-05T21:31:27.710Z,99736.76
2023-04-05T21:34:02.436Z,99740.12
2023-04-05T21:36:36.284Z,99746.94
2023-04-05T21:39:12.074Z,99744.25
2023-04-05T21:41:48.945Z,99745.84
2023-04-05T21:44:23.998Z,99744.84
2023-04-05T21:46:59.539Z,99749.97
2023-04-05T21:49:33.035Z,99749.87
2023-04-05T21:52:06.869Z,99753.23
2023-04-05T21:54:40.525Z,99754.91
2023-04-05T21:57:13.998Z,99757.41
2023-04-05T21:59:47.539Z,99753.76
2023-04-05T22:02:21.244Z,99762.34
2023-04-05T22:04:54.824Z,99763.92
2023-04-05T22:07:28.512Z,99760.37
2023-04-05T22:10:02.754Z,99757.64
2023-04-05T22:12:39.382Z,99754.95
2023-04-05T22:15:14.015Z,99759.13
2023-04-05T22:17:47.508Z,99761.52
2023-04-05T22:20:21.291Z,99769.23
2023-04-05T22:22:54.833Z,99763.05
2023-04-05T22:25:28.679Z,99763.77
2023-04-05T22:28:02.219Z,99761.17
2023-04-05T22:30:43.813Z,99764.58
2023-04-05T22:33:12.851Z,99761.98
2023-04-05T22:35:46.581Z,99766.14
2023-04-05T22:38:21.709Z,99763.47
2023-04-05T22:40:55.134Z,99765.08
2023-04-05T22:43:31.970Z,99752.91
2023-04-05T22:46:05.776Z,99760.47
2023-04-05T22:48:39.525Z,99768.94
2023-04-05T22:51:12.899Z,99773.86
2023-04-05T22:53:46.312Z,99774.50
2023-04-05T22:56:21.650Z,99770.09
2023-04-05T22:58:55.091Z,99775.12
2023-04-05T23:01:28.656Z,99769.84
2023-04-05T23:04:02.213Z,99770.59
2023-04-05T23:06:35.808Z,99771.35
2023-04-05T23:09:09.554Z,99778.03
2023-04-05T23:11:43.393Z,99768.28
2023-04-05T23:14:16.861Z,99772.37
2023-04-05T23:16:50.388Z,99767.06
2023-04-05T23:19:23.939Z,99773.89
2023-04-05T23:21:57.697Z,99776.33
2023-04-05T23:24:31.303Z,99766.80
2023-04-05T23:27:05.038Z,99768.30
2023-04-05T23:29:40.950Z,99763.84
2023-04-05T23:32:14.553Z,99770.51
2023-04-05T23:34:48.320Z,99758.17
2023-04-05T23:37:21.835Z,99766.67
2023-04-05T23:39:57.594Z,99771.63
2023-04-05T23:42:31.000Z,99764.56
2023-04-05T23:45:09.015Z,99764.51
2023-04-05T23:47:42.179Z,99766.76
2023-04-05T23:50:15.971Z,99757.93
2023-04-05T23:52:49.644Z,99770.72
2023-04-05T23:55:23.093Z,99762.01
2023-04-05T23:57:58.080Z,99757.66
